sensor_id;sensor_type;location;lat;lon;timestamp;temperature;humidity
262;DHT22;114;48.260;10.988;2022-11-20T00:01:20;5.10;71.00
262;DHT22;114;48.260;10.988;2022-11-20T00:03:48;5.10;70.40
262;DHT22;114;48.260;10.988;2022-11-20T00:06:18;5.10;72.20
262;DHT22;114;48.260;10.988;2022-11-20T00:08:44;5.10;72.30
262;DHT22;114;48.260;10.988;2022-11-20T00:11:18;5.10;70.10
262;DHT22;114;48.260;10.988;2022-11-20T00:13:48;5.10;70.00
262;DHT22;114;48.260;10.988;2022-11-20T00:16:15;5.10;71.70
262;DHT22;114;48.260;10.988;2022-11-20T00:18:41;5.10;70.90
262;DHT22;114;48.260;10.988;2022-11-20T00:21:18;5.10;70.60
262;DHT22;114;48.260;10.988;2022-11-20T00:23:44;5.10;70.80
262;DHT22;114;48.260;10.988;2022-11-20T00:26:14;5.10;69.90
262;DHT22;114;48.260;10.988;2022-11-20T00:28:41;5.10;70.00
262;DHT22;114;48.260;10.988;2022-11-20T00:31:13;5.10;68.90
262;DHT22;114;48.260;10.988;2022-11-20T00:33:40;5.10;66.60
262;DHT22;114;48.260;10.988;2022-11-20T00:36:09;5.10;66.20
262;DHT22;114;48.260;10.988;2022-11-20T00:38:37;5.10;65.00
262;DHT22;114;48.260;10.988;2022-11-20T00:41:06;5.10;65.20
262;DHT22;114;48.260;10.988;2022-11-20T00:43:32;5.10;66.30
262;DHT22;114;48.260;10.988;2022-11-20T00:46:01;5.10;65.60
262;DHT22;114;48.260;10.988;2022-11-20T00:48:28;5.10;66.20
262;DHT22;114;48.260;10.988;2022-11-20T00:50:54;5.00;65.90
262;DHT22;114;48.260;10.988;2022-11-20T00:53:21;5.00;66.10
262;DHT22;114;48.260;10.988;2022-11-20T00:56:00;5.00;67.20
262;DHT22;114;48.260;10.988;2022-11-20T00:58:32;5.00;66.20
262;DHT22;114;48.260;10.988;2022-11-20T01:01:08;5.00;66.70
262;DHT22;114;48.260;10.988;2022-11-20T01:03:36;5.00;66.10
262;DHT22;114;48.260;10.988;2022-11-20T01:06:11;5.00;65.00
262;DHT22;114;48.260;10.988;2022-11-20T01:08:38;5.00;64.80
262;DHT22;114;48.260;10.988;2022-11-20T01:11:06;5.00;63.80
262;DHT22;114;48.260;10.988;2022-11-20T01:13:34;5.00;64.80
262;DHT22;114;48.260;10.988;2022-11-20T01:16:11;5.00;62.90
262;DHT22;114;48.260;10.988;2022-11-20T01:18:39;5.00;63.30
262;DHT22;114;48.260;10.988;2022-11-20T01:21:08;5.00;62.80
262;DHT22;114;48.260;10.988;2022-11-20T01:23:38;5.00;62.40
262;DHT22;114;48.260;10.988;2022-11-20T01:26:07;5.00;62.30
262;DHT22;114;48.260;10.988;2022-11-20T01:28:34;5.00;61.20
262;DHT22;114;48.260;10.988;2022-11-20T01:31:01;5.00;60.80
262;DHT22;114;48.260;10.988;2022-11-20T01:33:28;4.90;62.90
262;DHT22;114;48.260;10.988;2022-11-20T01:36:04;4.90;61.50
262;DHT22;114;48.260;10.988;2022-11-20T01:38:30;4.90;63.10
262;DHT22;114;48.260;10.988;2022-11-20T01:40:56;4.90;64.10
262;DHT22;114;48.260;10.988;2022-11-20T01:43:22;4.80;63.70
262;DHT22;114;48.260;10.988;2022-11-20T01:46:17;4.80;64.60
262;DHT22;114;48.260;10.988;2022-11-20T01:51:29;4.70;65.90
262;DHT22;114;48.260;10.988;2022-11-20T01:54:00;4.70;66.30
262;DHT22;114;48.260;10.988;2022-11-20T01:56:31;4.70;65.90
262;DHT22;114;48.260;10.988;2022-11-20T01:59:01;4.70;67.40
262;DHT22;114;48.260;10.988;2022-11-20T02:01:30;4.70;67.60
262;DHT22;114;48.260;10.988;2022-11-20T02:03:56;4.70;66.40
262;DHT22;114;48.260;10.988;2022-11-20T02:06:44;4.70;66.60
262;DHT22;114;48.260;10.988;2022-11-20T02:09:14;4.70;65.20
262;DHT22;114;48.260;10.988;2022-11-20T02:11:40;4.80;64.10
262;DHT22;114;48.260;10.988;2022-11-20T02:14:07;4.70;64.80
262;DHT22;114;48.260;10.988;2022-11-20T02:16:36;4.70;64.30
262;DHT22;114;48.260;10.988;2022-11-20T02:19:06;4.70;63.00
262;DHT22;114;48.260;10.988;2022-11-20T02:24:15;4.80;61.40
262;DHT22;114;48.260;10.988;2022-11-20T02:34:48;4.90;57.50
262;DHT22;114;48.260;10.988;2022-11-20T02:37:14;4.90;57.50
262;DHT22;114;48.260;10.988;2022-11-20T02:39:41;4.90;55.30
262;DHT22;114;48.260;10.988;2022-11-20T02:42:09;4.90;56.70
262;DHT22;114;48.260;10.988;2022-11-20T02:44:36;4.90;56.90
262;DHT22;114;48.260;10.988;2022-11-20T02:47:02;4.90;56.90
262;DHT22;114;48.260;10.988;2022-11-20T02:49:28;4.80;56.80
262;DHT22;114;48.260;10.988;2022-11-20T02:51:54;4.90;56.90
262;DHT22;114;48.260;10.988;2022-11-20T02:54:20;4.90;56.20
262;DHT22;114;48.260;10.988;2022-11-20T02:56:46;4.90;55.60
262;DHT22;114;48.260;10.988;2022-11-20T02:59:11;4.90;55.70
262;DHT22;114;48.260;10.988;2022-11-20T03:01:37;4.90;56.90
262;DHT22;114;48.260;10.988;2022-11-20T03:04:04;4.90;56.90
262;DHT22;114;48.260;10.988;2022-11-20T03:06:30;4.80;56.00
262;DHT22;114;48.260;10.988;2022-11-20T03:08:55;4.80;54.40
262;DHT22;114;48.260;10.988;2022-11-20T03:11:22;4.90;55.00
262;DHT22;114;48.260;10.988;2022-11-20T03:13:48;4.80;53.10
262;DHT22;114;48.260;10.988;2022-11-20T03:16:19;4.90;53.60
262;DHT22;114;48.260;10.988;2022-11-20T03:18:47;4.90;53.30
262;DHT22;114;48.260;10.988;2022-11-20T03:21:14;4.80;53.60
262;DHT22;114;48.260;10.988;2022-11-20T03:23:40;4.80;54.80
262;DHT22;114;48.260;10.988;2022-11-20T03:26:17;4.90;53.20
262;DHT22;114;48.260;10.988;2022-11-20T03:28:54;4.80;53.10
262;DHT22;114;48.260;10.988;2022-11-20T03:31:43;4.80;52.80
262;DHT22;114;48.260;10.988;2022-11-20T03:34:11;4.90;52.70
262;DHT22;114;48.260;10.988;2022-11-20T03:36:41;4.80;55.20
262;DHT22;114;48.260;10.988;2022-11-20T03:39:07;4.90;54.80
262;DHT22;114;48.260;10.988;2022-11-20T03:41:38;4.80;53.70
262;DHT22;114;48.260;10.988;2022-11-20T03:44:07;4.90;54.00
262;DHT22;114;48.260;10.988;2022-11-20T03:46:32;4.90;53.70
262;DHT22;114;48.260;10.988;2022-11-20T03:48:58;4.90;54.10
262;DHT22;114;48.260;10.988;2022-11-20T03:51:26;4.80;54.70
262;DHT22;114;48.260;10.988;2022-11-20T03:53:56;4.90;53.70
262;DHT22;114;48.260;10.988;2022-11-20T03:56:28;4.90;54.60
262;DHT22;114;48.260;10.988;2022-11-20T03:58:54;4.90;54.40
262;DHT22;114;48.260;10.988;2022-11-20T04:01:22;4.90;53.20
262;DHT22;114;48.260;10.988;2022-11-20T04:03:49;4.80;54.20
262;DHT22;114;48.260;10.988;2022-11-20T04:06:17;4.80;54.60
262;DHT22;114;48.260;10.988;2022-11-20T04:08:43;4.80;54.30
262;DHT22;114;48.260;10.988;2022-11-20T04:11:15;4.80;54.40
262;DHT22;114;48.260;10.988;2022-11-20T04:13:42;4.80;55.20
262;DHT22;114;48.260;10.988;2022-11-20T04:16:17;4.80;55.00
262;DHT22;114;48.260;10.988;2022-11-20T04:18:43;4.90;52.30
262;DHT22;114;48.260;10.988;2022-11-20T04:21:09;4.90;53.10
262;DHT22;114;48.260;10.988;2022-11-20T04:23:35;4.90;51.50
262;DHT22;114;48.260;10.988;2022-11-20T04:28:29;4.90;52.30
262;DHT22;114;48.260;10.988;2022-11-20T04:31:05;4.90;52.50
262;DHT22;114;48.260;10.988;2022-11-20T04:33:34;4.90;52.70
262;DHT22;114;48.260;10.988;2022-11-20T04:36:02;4.90;51.20
262;DHT22;114;48.260;10.988;2022-11-20T04:38:28;4.90;49.20
262;DHT22;114;48.260;10.988;2022-11-20T04:41:02;5.00;49.00
262;DHT22;114;48.260;10.988;2022-11-20T04:43:29;5.00;49.20
262;DHT22;114;48.260;10.988;2022-11-20T04:45:57;4.90;49.20
262;DHT22;114;48.260;10.988;2022-11-20T04:48:23;5.00;45.60
262;DHT22;114;48.260;10.988;2022-11-20T04:50:50;5.00;46.00
262;DHT22;114;48.260;10.988;2022-11-20T04:53:16;5.00;47.20
262;DHT22;114;48.260;10.988;2022-11-20T04:55:42;5.00;44.80
262;DHT22;114;48.260;10.988;2022-11-20T04:58:08;5.00;43.00
262;DHT22;114;48.260;10.988;2022-11-20T05:00:34;5.00;42.20
262;DHT22;114;48.260;10.988;2022-11-20T05:02:59;5.00;41.70
262;DHT22;114;48.260;10.988;2022-11-20T05:05:25;5.00;42.80
262;DHT22;114;48.260;10.988;2022-11-20T05:07:52;5.00;41.80
262;DHT22;114;48.260;10.988;2022-11-20T05:10:17;5.00;42.30
262;DHT22;114;48.260;10.988;2022-11-20T05:12:43;4.90;43.60
262;DHT22;114;48.260;10.988;2022-11-20T05:15:09;4.90;42.70
262;DHT22;114;48.260;10.988;2022-11-20T05:17:35;4.80;42.90
262;DHT22;114;48.260;10.988;2022-11-20T05:20:00;4.80;43.60
262;DHT22;114;48.260;10.988;2022-11-20T05:22:26;4.70;44.80
262;DHT22;114;48.260;10.988;2022-11-20T05:24:53;4.70;45.60
262;DHT22;114;48.260;10.988;2022-11-20T05:27:18;4.60;47.10
262;DHT22;114;48.260;10.988;2022-11-20T05:29:44;4.60;45.80
262;DHT22;114;48.260;10.988;2022-11-20T05:32:10;4.50;46.80
262;DHT22;114;48.260;10.988;2022-11-20T05:34:36;4.50;47.50
262;DHT22;114;48.260;10.988;2022-11-20T05:37:02;4.50;47.60
262;DHT22;114;48.260;10.988;2022-11-20T05:39:29;4.50;47.30
262;DHT22;114;48.260;10.988;2022-11-20T05:41:55;4.60;47.90
262;DHT22;114;48.260;10.988;2022-11-20T05:44:39;4.60;47.30
262;DHT22;114;48.260;10.988;2022-11-20T05:47:05;4.60;47.40
262;DHT22;114;48.260;10.988;2022-11-20T05:49:31;4.60;48.70
262;DHT22;114;48.260;10.988;2022-11-20T05:51:56;4.60;47.40
262;DHT22;114;48.260;10.988;2022-11-20T05:54:24;4.70;46.40
262;DHT22;114;48.260;10.988;2022-11-20T05:56:50;4.70;45.30
262;DHT22;114;48.260;10.988;2022-11-20T05:59:15;4.70;43.80
262;DHT22;114;48.260;10.988;2022-11-20T06:01:42;4.70;43.30
262;DHT22;114;48.260;10.988;2022-11-20T06:04:08;4.70;42.70
262;DHT22;114;48.260;10.988;2022-11-20T06:06:33;4.80;42.80
262;DHT22;114;48.260;10.988;2022-11-20T06:08:59;4.70;41.70
262;DHT22;114;48.260;10.988;2022-11-20T06:11:25;4.70;40.60
262;DHT22;114;48.260;10.988;2022-11-20T06:13:51;4.70;40.70
262;DHT22;114;48.260;10.988;2022-11-20T06:16:18;4.70;41.70
262;DHT22;114;48.260;10.988;2022-11-20T06:18:45;4.70;40.90
262;DHT22;114;48.260;10.988;2022-11-20T06:21:16;4.70;41.30
262;DHT22;114;48.260;10.988;2022-11-20T06:23:43;4.70;42.10
262;DHT22;114;48.260;10.988;2022-11-20T06:26:11;4.70;42.70
262;DHT22;114;48.260;10.988;2022-11-20T06:28:37;4.70;42.80
262;DHT22;114;48.260;10.988;2022-11-20T06:31:04;4.70;42.80
262;DHT22;114;48.260;10.988;2022-11-20T06:33:31;4.70;43.40
262;DHT22;114;48.260;10.988;2022-11-20T06:36:00;4.70;42.70
262;DHT22;114;48.260;10.988;2022-11-20T06:38:27;4.70;41.80
262;DHT22;114;48.260;10.988;2022-11-20T06:40:53;4.80;41.20
262;DHT22;114;48.260;10.988;2022-11-20T06:43:20;4.80;40.50
262;DHT22;114;48.260;10.988;2022-11-20T06:45:58;4.80;40.60
262;DHT22;114;48.260;10.988;2022-11-20T06:48:26;4.90;41.10
262;DHT22;114;48.260;10.988;2022-11-20T06:50:52;4.80;41.90
262;DHT22;114;48.260;10.988;2022-11-20T06:53:18;4.90;41.20
262;DHT22;114;48.260;10.988;2022-11-20T06:55:46;4.90;41.10
262;DHT22;114;48.260;10.988;2022-11-20T06:58:14;4.90;41.10
262;DHT22;114;48.260;10.988;2022-11-20T07:00:40;4.90;40.20
262;DHT22;114;48.260;10.988;2022-11-20T07:03:07;4.90;40.50
262;DHT22;114;48.260;10.988;2022-11-20T07:05:35;4.90;40.20
262;DHT22;114;48.260;10.988;2022-11-20T07:08:02;4.90;38.50
262;DHT22;114;48.260;10.988;2022-11-20T07:10:28;5.00;38.20
262;DHT22;114;48.260;10.988;2022-11-20T07:12:54;5.00;38.50
262;DHT22;114;48.260;10.988;2022-11-20T07:15:22;5.00;38.30
262;DHT22;114;48.260;10.988;2022-11-20T07:17:48;5.00;37.90
262;DHT22;114;48.260;10.988;2022-11-20T07:20:14;5.00;35.80
262;DHT22;114;48.260;10.988;2022-11-20T07:22:41;5.10;35.00
262;DHT22;114;48.260;10.988;2022-11-20T07:25:08;5.10;34.70
262;DHT22;114;48.260;10.988;2022-11-20T07:27:35;5.20;35.20
262;DHT22;114;48.260;10.988;2022-11-20T07:30:03;5.20;33.50
262;DHT22;114;48.260;10.988;2022-11-20T07:32:29;5.20;33.50
262;DHT22;114;48.260;10.988;2022-11-20T07:34:55;5.20;33.50
262;DHT22;114;48.260;10.988;2022-11-20T07:37:21;5.20;33.50
262;DHT22;114;48.260;10.988;2022-11-20T07:39:47;5.30;32.20
262;DHT22;114;48.260;10.988;2022-11-20T07:42:12;5.40;32.30
262;DHT22;114;48.260;10.988;2022-11-20T07:44:38;5.40;31.90
262;DHT22;114;48.260;10.988;2022-11-20T07:47:04;5.30;31.90
262;DHT22;114;48.260;10.988;2022-11-20T07:49:30;5.40;32.20
262;DHT22;114;48.260;10.988;2022-11-20T07:51:56;5.50;30.70
262;DHT22;114;48.260;10.988;2022-11-20T07:54:22;5.40;34.30
262;DHT22;114;48.260;10.988;2022-11-20T07:56:49;5.40;35.10
262;DHT22;114;48.260;10.988;2022-11-20T07:59:15;5.40;33.70
262;DHT22;114;48.260;10.988;2022-11-20T08:01:41;5.50;32.20
262;DHT22;114;48.260;10.988;2022-11-20T08:04:09;5.60;32.90
262;DHT22;114;48.260;10.988;2022-11-20T08:06:36;5.70;30.60
262;DHT22;114;48.260;10.988;2022-11-20T08:09:03;5.80;31.70
262;DHT22;114;48.260;10.988;2022-11-20T08:11:29;5.70;30.50
262;DHT22;114;48.260;10.988;2022-11-20T08:14:13;5.90;29.40
262;DHT22;114;48.260;10.988;2022-11-20T08:16:40;5.90;28.30
262;DHT22;114;48.260;10.988;2022-11-20T08:19:07;5.90;28.60
262;DHT22;114;48.260;10.988;2022-11-20T08:21:33;5.90;29.30
262;DHT22;114;48.260;10.988;2022-11-20T08:23:59;5.90;29.10
262;DHT22;114;48.260;10.988;2022-11-20T08:26:25;5.90;28.40
262;DHT22;114;48.260;10.988;2022-11-20T08:28:56;5.80;29.00
262;DHT22;114;48.260;10.988;2022-11-20T08:31:23;5.90;29.90
262;DHT22;114;48.260;10.988;2022-11-20T08:33:49;5.90;29.50
262;DHT22;114;48.260;10.988;2022-11-20T08:36:15;6.00;29.10
262;DHT22;114;48.260;10.988;2022-11-20T08:38:41;6.00;28.10
262;DHT22;114;48.260;10.988;2022-11-20T08:41:07;6.00;27.60
262;DHT22;114;48.260;10.988;2022-11-20T08:43:55;6.10;27.80
262;DHT22;114;48.260;10.988;2022-11-20T08:46:21;6.10;25.20
262;DHT22;114;48.260;10.988;2022-11-20T08:48:47;6.20;27.00
262;DHT22;114;48.260;10.988;2022-11-20T08:51:13;6.30;24.60
262;DHT22;114;48.260;10.988;2022-11-20T08:53:40;6.40;24.40
262;DHT22;114;48.260;10.988;2022-11-20T08:56:06;6.50;24.40
262;DHT22;114;48.260;10.988;2022-11-20T08:58:32;6.60;22.10
262;DHT22;114;48.260;10.988;2022-11-20T09:00:57;6.70;20.70
262;DHT22;114;48.260;10.988;2022-11-20T09:03:23;6.70;18.90
262;DHT22;114;48.260;10.988;2022-11-20T09:06:06;6.80;19.60
262;DHT22;114;48.260;10.988;2022-11-20T09:08:33;6.80;16.00
262;DHT22;114;48.260;10.988;2022-11-20T09:10:59;7.00;17.20
262;DHT22;114;48.260;10.988;2022-11-20T09:13:27;7.10;15.10
262;DHT22;114;48.260;10.988;2022-11-20T09:15:56;7.20;15.60
262;DHT22;114;48.260;10.988;2022-11-20T09:18:23;7.50;11.40
262;DHT22;114;48.260;10.988;2022-11-20T09:20:49;7.60;10.50
262;DHT22;114;48.260;10.988;2022-11-20T09:23:15;7.00;12.70
262;DHT22;114;48.260;10.988;2022-11-20T09:25:43;7.00;13.50
262;DHT22;114;48.260;10.988;2022-11-20T09:28:10;7.10;13.50
262;DHT22;114;48.260;10.988;2022-11-20T09:30:36;7.00;15.00
262;DHT22;114;48.260;10.988;2022-11-20T09:33:08;7.10;15.00
262;DHT22;114;48.260;10.988;2022-11-20T09:35:43;7.10;15.20
262;DHT22;114;48.260;10.988;2022-11-20T09:38:10;7.00;14.20
262;DHT22;114;48.260;10.988;2022-11-20T09:40:40;6.80;14.10
262;DHT22;114;48.260;10.988;2022-11-20T09:43:11;6.90;14.80
262;DHT22;114;48.260;10.988;2022-11-20T09:45:46;6.90;14.30
262;DHT22;114;48.260;10.988;2022-11-20T09:56:43;6.90;13.70
262;DHT22;114;48.260;10.988;2022-11-20T10:02:19;6.80;14.20
262;DHT22;114;48.260;10.988;2022-11-20T10:08:42;6.90;15.00
262;DHT22;114;48.260;10.988;2022-11-20T10:13:58;7.10;15.70
262;DHT22;114;48.260;10.988;2022-11-20T10:30:17;7.20;11.70
262;DHT22;114;48.260;10.988;2022-11-20T10:33:22;7.10;11.20
262;DHT22;114;48.260;10.988;2022-11-20T10:38:30;6.80;13.30
262;DHT22;114;48.260;10.988;2022-11-20T10:41:02;6.80;13.80
262;DHT22;114;48.260;10.988;2022-11-20T10:44:03;6.70;14.70
262;DHT22;114;48.260;10.988;2022-11-20T10:46:48;6.70;13.60
262;DHT22;114;48.260;10.988;2022-11-20T10:49:16;6.70;15.10
262;DHT22;114;48.260;10.988;2022-11-20T10:57:52;6.80;15.80
262;DHT22;114;48.260;10.988;2022-11-20T11:00:33;6.80;15.10
262;DHT22;114;48.260;10.988;2022-11-20T11:03:45;7.00;12.90
262;DHT22;114;48.260;10.988;2022-11-20T11:08:53;7.00;10.50
262;DHT22;114;48.260;10.988;2022-11-20T11:11:27;7.00;10.10
262;DHT22;114;48.260;10.988;2022-11-20T11:14:07;6.90;10.10
262;DHT22;114;48.260;10.988;2022-11-20T11:16:33;6.80;11.70
262;DHT22;114;48.260;10.988;2022-11-20T11:19:06;6.70;10.40
262;DHT22;114;48.260;10.988;2022-11-20T11:21:32;6.60;11.60
262;DHT22;114;48.260;10.988;2022-11-20T11:24:20;6.60;12.70
262;DHT22;114;48.260;10.988;2022-11-20T11:27:01;6.50;13.90
262;DHT22;114;48.260;10.988;2022-11-20T11:29:31;6.50;13.90
262;DHT22;114;48.260;10.988;2022-11-20T11:32:11;6.50;12.40
262;DHT22;114;48.260;10.988;2022-11-20T11:34:40;6.60;13.70
262;DHT22;114;48.260;10.988;2022-11-20T11:37:28;6.60;12.20
262;DHT22;114;48.260;10.988;2022-11-20T11:39:59;6.70;12.90
262;DHT22;114;48.260;10.988;2022-11-20T11:42:28;6.80;13.80
262;DHT22;114;48.260;10.988;2022-11-20T11:45:14;6.80;14.10
262;DHT22;114;48.260;10.988;2022-11-20T11:52:47;6.60;16.30
262;DHT22;114;48.260;10.988;2022-11-20T12:01:29;6.80;15.70
262;DHT22;114;48.260;10.988;2022-11-20T12:04:20;6.70;16.30
262;DHT22;114;48.260;10.988;2022-11-20T12:06:51;6.80;14.60
262;DHT22;114;48.260;10.988;2022-11-20T12:09:21;6.70;14.00
262;DHT22;114;48.260;10.988;2022-11-20T12:12:58;6.90;13.30
262;DHT22;114;48.260;10.988;2022-11-20T12:14:53;6.70;14.70
262;DHT22;114;48.260;10.988;2022-11-20T12:17:23;6.80;14.60
262;DHT22;114;48.260;10.988;2022-11-20T12:19:49;6.80;16.00
262;DHT22;114;48.260;10.988;2022-11-20T12:22:36;6.90;14.60
262;DHT22;114;48.260;10.988;2022-11-20T12:28:09;6.90;14.70
262;DHT22;114;48.260;10.988;2022-11-20T12:33:31;6.60;20.90
262;DHT22;114;48.260;10.988;2022-11-20T12:36:44;6.50;23.50
262;DHT22;114;48.260;10.988;2022-11-20T12:39:42;6.50;26.00
262;DHT22;114;48.260;10.988;2022-11-20T12:42:34;6.30;25.80
262;DHT22;114;48.260;10.988;2022-11-20T13:02:44;6.20;34.40
262;DHT22;114;48.260;10.988;2022-11-20T13:08:33;6.10;39.60
262;DHT22;114;48.260;10.988;2022-11-20T13:11:27;6.10;37.60
262;DHT22;114;48.260;10.988;2022-11-20T13:14:04;6.20;40.10
262;DHT22;114;48.260;10.988;2022-11-20T13:16:55;6.20;40.40
262;DHT22;114;48.260;10.988;2022-11-20T13:19:24;6.20;40.60
262;DHT22;114;48.260;10.988;2022-11-20T13:21:50;6.20;37.70
262;DHT22;114;48.260;10.988;2022-11-20T13:24:20;6.20;39.90
262;DHT22;114;48.260;10.988;2022-11-20T13:29:26;6.20;38.90
262;DHT22;114;48.260;10.988;2022-11-20T13:32:05;6.20;39.20
262;DHT22;114;48.260;10.988;2022-11-20T13:34:32;6.20;39.60
262;DHT22;114;48.260;10.988;2022-11-20T13:37:00;6.20;39.80
262;DHT22;114;48.260;10.988;2022-11-20T13:39:52;6.20;40.80
262;DHT22;114;48.260;10.988;2022-11-20T13:42:20;6.20;39.20
262;DHT22;114;48.260;10.988;2022-11-20T13:45:02;6.10;41.00
262;DHT22;114;48.260;10.988;2022-11-20T13:47:29;6.10;39.10
262;DHT22;114;48.260;10.988;2022-11-20T13:49:59;6.10;39.10
262;DHT22;114;48.260;10.988;2022-11-20T13:55:31;6.20;39.10
262;DHT22;114;48.260;10.988;2022-11-20T14:01:00;6.20;36.60
262;DHT22;114;48.260;10.988;2022-11-20T14:03:30;6.20;36.00
262;DHT22;114;48.260;10.988;2022-11-20T14:06:05;6.20;33.50
262;DHT22;114;48.260;10.988;2022-11-20T14:08:54;6.30;34.40
262;DHT22;114;48.260;10.988;2022-11-20T14:11:30;6.30;34.60
262;DHT22;114;48.260;10.988;2022-11-20T14:14:13;6.30;35.50
262;DHT22;114;48.260;10.988;2022-11-20T14:16:41;6.30;34.40
262;DHT22;114;48.260;10.988;2022-11-20T14:21:51;6.30;34.70
262;DHT22;114;48.260;10.988;2022-11-20T14:24:23;6.30;35.80
262;DHT22;114;48.260;10.988;2022-11-20T14:26:51;6.30;39.20
262;DHT22;114;48.260;10.988;2022-11-20T14:29:23;6.20;41.80
262;DHT22;114;48.260;10.988;2022-11-20T14:31:53;6.20;43.30
262;DHT22;114;48.260;10.988;2022-11-20T14:34:27;6.20;42.80
262;DHT22;114;48.260;10.988;2022-11-20T14:36:59;6.20;44.00
262;DHT22;114;48.260;10.988;2022-11-20T14:39:35;6.30;54.10
262;DHT22;114;48.260;10.988;2022-11-20T14:42:14;6.60;44.00
262;DHT22;114;48.260;10.988;2022-11-20T14:44:43;6.70;47.60
262;DHT22;114;48.260;10.988;2022-11-20T14:47:12;6.30;40.70
262;DHT22;114;48.260;10.988;2022-11-20T14:49:40;6.30;42.80
262;DHT22;114;48.260;10.988;2022-11-20T14:52:22;6.20;43.30
262;DHT22;114;48.260;10.988;2022-11-20T14:54:50;6.10;42.70
262;DHT22;114;48.260;10.988;2022-11-20T14:57:35;6.10;41.60
262;DHT22;114;48.260;10.988;2022-11-20T15:00:19;6.00;41.60
262;DHT22;114;48.260;10.988;2022-11-20T15:02:47;5.90;38.20
262;DHT22;114;48.260;10.988;2022-11-20T15:05:16;5.80;38.40
262;DHT22;114;48.260;10.988;2022-11-20T15:08:12;5.60;43.40
262;DHT22;114;48.260;10.988;2022-11-20T15:10:50;5.30;50.90
262;DHT22;114;48.260;10.988;2022-11-20T15:13:36;5.20;57.20
262;DHT22;114;48.260;10.988;2022-11-20T15:16:17;5.20;57.10
262;DHT22;114;48.260;10.988;2022-11-20T15:18:48;5.10;57.10
262;DHT22;114;48.260;10.988;2022-11-20T15:21:18;5.10;57.70
262;DHT22;114;48.260;10.988;2022-11-20T15:23:48;5.00;57.00
262;DHT22;114;48.260;10.988;2022-11-20T15:26:26;5.10;56.00
262;DHT22;114;48.260;10.988;2022-11-20T15:28:57;5.10;56.90
262;DHT22;114;48.260;10.988;2022-11-20T15:31:26;5.10;57.40
262;DHT22;114;48.260;10.988;2022-11-20T15:33:55;5.10;57.90
262;DHT22;114;48.260;10.988;2022-11-20T15:36:31;5.00;57.90
262;DHT22;114;48.260;10.988;2022-11-20T15:39:00;5.00;57.20
262;DHT22;114;48.260;10.988;2022-11-20T15:41:29;5.00;59.30
262;DHT22;114;48.260;10.988;2022-11-20T15:43:57;5.00;60.50
262;DHT22;114;48.260;10.988;2022-11-20T15:46:28;5.00;63.70
262;DHT22;114;48.260;10.988;2022-11-20T15:48:58;5.00;64.70
262;DHT22;114;48.260;10.988;2022-11-20T15:51:30;5.00;66.20
262;DHT22;114;48.260;10.988;2022-11-20T15:53:58;5.10;65.10
262;DHT22;114;48.260;10.988;2022-11-20T15:56:26;5.10;67.20
262;DHT22;114;48.260;10.988;2022-11-20T15:58:54;5.10;68.10
262;DHT22;114;48.260;10.988;2022-11-20T16:01:22;5.10;69.60
262;DHT22;114;48.260;10.988;2022-11-20T16:03:49;5.10;70.10
262;DHT22;114;48.260;10.988;2022-11-20T16:06:20;5.10;71.30
262;DHT22;114;48.260;10.988;2022-11-20T16:08:46;5.10;73.00
262;DHT22;114;48.260;10.988;2022-11-20T16:11:13;5.00;74.40
262;DHT22;114;48.260;10.988;2022-11-20T16:13:40;5.10;74.20
262;DHT22;114;48.260;10.988;2022-11-20T16:16:31;5.10;72.40
262;DHT22;114;48.260;10.988;2022-11-20T16:18:58;5.00;73.00
262;DHT22;114;48.260;10.988;2022-11-20T16:21:26;5.00;74.70
262;DHT22;114;48.260;10.988;2022-11-20T16:24:02;4.80;75.00
262;DHT22;114;48.260;10.988;2022-11-20T16:26:31;4.70;78.50
262;DHT22;114;48.260;10.988;2022-11-20T16:28:59;4.60;81.10
262;DHT22;114;48.260;10.988;2022-11-20T16:31:25;4.50;82.70
262;DHT22;114;48.260;10.988;2022-11-20T16:33:54;4.40;83.50
262;DHT22;114;48.260;10.988;2022-11-20T16:36:22;4.30;84.40
262;DHT22;114;48.260;10.988;2022-11-20T16:38:59;4.10;86.60
262;DHT22;114;48.260;10.988;2022-11-20T16:41:27;4.10;88.90
262;DHT22;114;48.260;10.988;2022-11-20T16:43:56;4.00;89.80
262;DHT22;114;48.260;10.988;2022-11-20T16:46:24;4.00;91.30
262;DHT22;114;48.260;10.988;2022-11-20T16:51:23;3.80;92.70
262;DHT22;114;48.260;10.988;2022-11-20T16:53:51;3.80;93.40
262;DHT22;114;48.260;10.988;2022-11-20T16:56:21;3.70;94.00
262;DHT22;114;48.260;10.988;2022-11-20T16:58:52;3.70;94.40
262;DHT22;114;48.260;10.988;2022-11-20T17:01:22;3.80;94.90
262;DHT22;114;48.260;10.988;2022-11-20T17:04:00;3.80;94.90
262;DHT22;114;48.260;10.988;2022-11-20T17:06:37;3.80;94.50
262;DHT22;114;48.260;10.988;2022-11-20T17:09:07;3.80;94.10
262;DHT22;114;48.260;10.988;2022-11-20T17:11:37;3.80;93.90
262;DHT22;114;48.260;10.988;2022-11-20T17:14:05;3.70;93.90
262;DHT22;114;48.260;10.988;2022-11-20T17:16:36;3.70;94.30
262;DHT22;114;48.260;10.988;2022-11-20T17:19:06;3.60;94.30
262;DHT22;114;48.260;10.988;2022-11-20T17:21:35;3.60;94.80
262;DHT22;114;48.260;10.988;2022-11-20T17:24:06;3.60;94.70
262;DHT22;114;48.260;10.988;2022-11-20T17:26:35;3.60;94.70
262;DHT22;114;48.260;10.988;2022-11-20T17:29:06;3.60;95.10
262;DHT22;114;48.260;10.988;2022-11-20T17:31:33;3.60;95.60
262;DHT22;114;48.260;10.988;2022-11-20T17:34:07;3.60;95.70
262;DHT22;114;48.260;10.988;2022-11-20T17:36:39;3.60;95.30
262;DHT22;114;48.260;10.988;2022-11-20T17:39:07;3.60;93.70
262;DHT22;114;48.260;10.988;2022-11-20T17:41:32;3.60;92.60
262;DHT22;114;48.260;10.988;2022-11-20T17:44:01;3.60;91.00
262;DHT22;114;48.260;10.988;2022-11-20T17:46:29;3.60;88.60
262;DHT22;114;48.260;10.988;2022-11-20T17:48:59;3.60;86.10
262;DHT22;114;48.260;10.988;2022-11-20T17:51:30;3.60;82.60
262;DHT22;114;48.260;10.988;2022-11-20T17:53:58;3.50;80.00
262;DHT22;114;48.260;10.988;2022-11-20T17:56:32;3.50;77.20
262;DHT22;114;48.260;10.988;2022-11-20T17:59:17;3.50;75.10
262;DHT22;114;48.260;10.988;2022-11-20T18:01:43;3.50;74.30
262;DHT22;114;48.260;10.988;2022-11-20T18:04:12;3.50;73.90
262;DHT22;114;48.260;10.988;2022-11-20T18:06:38;3.40;74.20
262;DHT22;114;48.260;10.988;2022-11-20T18:09:05;3.40;74.80
262;DHT22;114;48.260;10.988;2022-11-20T18:11:40;3.40;74.80
262;DHT22;114;48.260;10.988;2022-11-20T18:14:12;3.40;74.90
262;DHT22;114;48.260;10.988;2022-11-20T18:16:53;3.40;75.30
262;DHT22;114;48.260;10.988;2022-11-20T18:19:25;3.40;75.20
262;DHT22;114;48.260;10.988;2022-11-20T18:21:52;3.40;74.40
262;DHT22;114;48.260;10.988;2022-11-20T18:24:19;3.40;74.30
262;DHT22;114;48.260;10.988;2022-11-20T18:26:45;3.50;73.20
262;DHT22;114;48.260;10.988;2022-11-20T18:29:13;3.50;72.20
262;DHT22;114;48.260;10.988;2022-11-20T18:31:39;3.50;72.70
262;DHT22;114;48.260;10.988;2022-11-20T18:34:06;3.50;71.00
262;DHT22;114;48.260;10.988;2022-11-20T18:36:38;3.50;72.70
262;DHT22;114;48.260;10.988;2022-11-20T18:39:05;3.50;71.60
262;DHT22;114;48.260;10.988;2022-11-20T18:41:39;3.40;72.10
262;DHT22;114;48.260;10.988;2022-11-20T18:44:28;3.40;72.20
262;DHT22;114;48.260;10.988;2022-11-20T18:47:15;3.50;71.90